Union Cty, Tennessee
Current Conditions -  °F | °C
As of 5:35 AM on Thursday 18 Dec 2014 (Local Time) from KUCY Reporting Station
Overcast Overcast  
Wind Chill: 32°   Ceiling: 4200
Heat Index: 32°   Visibility: 10mi
Dew Point: 32°   Wind: 3mph
Humidity: 100%   Direction: 90°E
Pressure: 30.23"   Gusts: NA
Location:  36.4211°N, 89.0662°W
Report Text: KUCY 181135Z AUTO 09003KT 10SM OVC042 00/00 A3023 RMK
Loading
Personal Weather Stations






























Interactive Weather Map New forecast layout! Learn more

10-Day Weather Forecast

Advertisements
Track Severe Weather on mobile